Time;durP1;ratioP1;P1;durP2;ratioP2;P2;SDS_P1;SDS_P2;PMS_P1;PMS_P2;Temp;Humidity;BMP_temperature;BMP_pressure;BME280_temperature;BME280_humidity;BME280_pressure;Samples;Min_cycle;Max_cycle;Signal;HPM_P1;HPM_P2
2022/05/15 00:00:38;0.00;0.00;0.62;0.00;0.00;0.62;3.47;2.90;;;28.60;22.60;;;;;;2244542;61;20360;-63
2022/05/15 00:03:24;0.00;0.00;0.62;0.00;0.00;0.62;6.13;3.73;;;28.50;22.60;;;;;;2244706;61;20665;-63
2022/05/15 00:06:09;0.00;0.00;0.62;0.00;0.00;0.62;4.77;3.10;;;28.50;22.60;;;;;;2244592;61;20408;-61
2022/05/15 00:08:53;0.00;0.00;0.62;0.00;0.00;0.62;4.83;4.00;;;28.50;22.60;;;;;;2244981;61;20806;-62
2022/05/15 00:11:38;0.00;0.00;0.62;0.00;0.00;0.62;4.07;3.10;;;28.50;22.60;;;;;;2244321;61;20438;-64
2022/05/15 00:14:23;0.00;0.00;0.62;0.00;0.00;0.62;6.10;3.87;;;28.60;22.60;;;;;;2244451;61;20388;-62
2022/05/15 00:17:09;0.00;0.00;0.62;0.00;0.00;0.62;4.87;3.60;;;28.50;22.60;;;;;;2244516;61;20365;-63
2022/05/15 00:19:54;0.00;0.00;0.62;0.00;0.00;0.62;5.23;3.60;;;28.50;22.60;;;;;;2249169;61;20412;-63
2022/05/15 00:22:40;0.00;0.00;0.62;0.00;0.00;0.62;4.30;3.37;;;28.50;22.60;;;;;;2244257;61;20408;-63
2022/05/15 00:25:27;0.00;0.00;0.62;0.00;0.00;0.62;5.90;4.20;;;28.50;22.60;;;;;;2244526;61;20380;-62
2022/05/15 00:28:13;0.00;0.00;0.62;0.00;0.00;0.62;3.67;3.10;;;28.50;22.60;;;;;;2244458;61;20380;-61
2022/05/15 00:30:57;0.00;0.00;0.62;0.00;0.00;0.62;5.43;4.10;;;28.50;22.60;;;;;;2249736;61;20416;-62
2022/05/15 00:33:45;0.00;0.00;0.62;0.00;0.00;0.62;5.83;4.07;;;28.50;22.60;;;;;;2244385;61;20365;-60
2022/05/15 00:36:30;0.00;0.00;0.62;0.00;0.00;0.62;4.63;3.90;;;28.50;22.60;;;;;;2244358;61;20373;-60
2022/05/15 00:39:15;0.00;0.00;0.62;0.00;0.00;0.62;4.60;3.47;;;28.50;22.60;;;;;;2244606;61;20412;-60
2022/05/15 00:41:59;0.00;0.00;0.62;0.00;0.00;0.62;4.30;3.50;;;28.50;22.60;;;;;;2243941;61;20373;-58
2022/05/15 00:44:44;0.00;0.00;0.62;0.00;0.00;0.62;3.90;3.17;;;28.50;23.10;;;;;;2244648;61;20389;-63
2022/05/15 00:47:29;0.00;0.00;0.62;0.00;0.00;0.62;4.50;3.80;;;28.50;22.60;;;;;;2244524;61;20373;-61
2022/05/15 00:50:25;0.00;0.00;0.62;0.00;0.00;0.62;4.60;3.50;;;28.50;22.60;;;;;;2244432;61;20428;-60
2022/05/15 00:53:10;0.00;0.00;0.62;0.00;0.00;0.62;4.57;3.33;;;28.50;22.60;;;;;;2244607;61;20360;-59
2022/05/15 00:55:56;0.00;0.00;0.62;0.00;0.00;0.62;4.30;3.57;;;28.50;22.60;;;;;;2244464;61;20432;-62
2022/05/15 00:58:48;0.00;0.00;0.62;0.00;0.00;0.62;5.20;3.70;;;28.50;22.60;;;;;;2244026;61;20368;-62
2022/05/15 01:01:33;0.00;0.00;0.62;0.00;0.00;0.62;4.73;3.57;;;28.50;22.60;;;;;;2243707;61;20458;-64
2022/05/15 01:04:17;0.00;0.00;0.62;0.00;0.00;0.62;5.93;4.33;;;28.50;22.60;;;;;;2246898;61;20396;-58
2022/05/15 01:07:05;0.00;0.00;0.62;0.00;0.00;0.62;4.37;3.50;;;28.50;22.60;;;;;;2244739;61;20831;-60
2022/05/15 01:09:50;0.00;0.00;0.62;0.00;0.00;0.62;4.87;3.87;;;28.50;22.60;;;;;;2244062;61;20419;-62
2022/05/15 01:12:38;0.00;0.00;0.62;0.00;0.00;0.62;4.70;4.00;;;28.50;22.60;;;;;;2244228;61;20359;-59
2022/05/15 01:15:26;0.00;0.00;0.62;0.00;0.00;0.62;5.30;4.57;;;28.50;22.60;;;;;;2244429;61;20905;-61
2022/05/15 01:18:21;0.00;0.00;0.62;0.00;0.00;0.62;4.47;3.57;;;28.50;22.60;;;;;;2246812;61;20794;-58
2022/05/15 01:21:22;0.00;0.00;0.62;0.00;0.00;0.62;4.80;4.07;;;28.50;22.60;;;;;;2243804;61;20517;-65
2022/05/15 01:24:09;0.00;0.00;0.62;0.00;0.00;0.62;4.13;3.73;;;28.50;22.60;;;;;;2243965;61;20388;-62
2022/05/15 01:26:54;0.00;0.00;0.62;0.00;0.00;0.62;6.17;3.97;;;28.50;22.60;;;;;;2246777;61;20772;-64
2022/05/15 01:29:46;0.00;0.00;0.62;0.00;0.00;0.62;4.67;3.30;;;28.50;22.60;;;;;;2246761;61;20392;-60
2022/05/15 01:32:33;0.00;0.00;0.62;0.00;0.00;0.62;4.83;4.10;;;28.50;22.60;;;;;;2243830;61;20379;-60
2022/05/15 01:35:19;0.00;0.00;0.62;0.00;0.00;0.62;5.83;3.90;;;28.50;22.60;;;;;;2249225;61;20448;-61
2022/05/15 01:38:07;0.00;0.00;0.62;0.00;0.00;0.62;7.37;4.33;;;28.50;22.60;;;;;;2247105;61;20373;-63
2022/05/15 01:40:52;0.00;0.00;0.62;0.00;0.00;0.62;4.77;3.80;;;28.50;22.60;;;;;;2243638;61;20427;-62
2022/05/15 01:43:39;0.00;0.00;0.62;0.00;0.00;0.62;6.67;5.03;;;28.50;22.60;;;;;;2249531;61;20387;-64
2022/05/15 01:46:26;0.00;0.00;0.62;0.00;0.00;0.62;5.87;4.20;;;28.40;22.50;;;;;;2246661;61;20361;-63
2022/05/15 01:49:12;0.00;0.00;0.62;0.00;0.00;0.62;5.90;4.80;;;28.40;22.40;;;;;;2243707;61;20395;-60
2022/05/15 01:51:56;0.00;0.00;0.62;0.00;0.00;0.62;4.93;4.33;;;28.40;22.50;;;;;;2243994;61;20369;-61
2022/05/15 01:54:43;0.00;0.00;0.62;0.00;0.00;0.62;6.27;4.50;;;28.40;22.40;;;;;;2249405;61;20472;-61
2022/05/15 01:57:29;0.00;0.00;0.62;0.00;0.00;0.62;4.43;4.00;;;28.40;22.40;;;;;;2249364;61;20449;-60
2022/05/15 02:00:19;0.00;0.00;0.62;0.00;0.00;0.62;5.07;4.57;;;28.40;22.40;;;;;;2249495;61;20392;-60
2022/05/15 02:03:06;0.00;0.00;0.62;0.00;0.00;0.62;4.50;4.10;;;28.40;22.30;;;;;;2249210;61;20365;-62
2022/05/15 02:05:51;0.00;0.00;0.62;0.00;0.00;0.62;4.53;3.83;;;28.40;22.30;;;;;;2244612;61;20557;-61
2022/05/15 02:08:37;0.00;0.00;0.62;0.00;0.00;0.62;7.53;3.90;;;28.40;22.30;;;;;;2249540;61;20364;-61
2022/05/15 02:11:23;0.00;0.00;0.62;0.00;0.00;0.62;5.77;4.10;;;28.30;22.20;;;;;;2248749;61;20497;-60
2022/05/15 02:14:09;0.00;0.00;0.62;0.00;0.00;0.62;5.37;4.30;;;28.30;22.20;;;;;;2249459;61;20520;-58
2022/05/15 02:16:55;0.00;0.00;0.62;0.00;0.00;0.62;4.90;4.10;;;28.30;22.20;;;;;;2244249;61;20537;-60
2022/05/15 02:19:40;0.00;0.00;0.62;0.00;0.00;0.62;5.57;4.43;;;28.20;22.10;;;;;;2244247;61;20360;-61
2022/05/15 02:22:25;0.00;0.00;0.62;0.00;0.00;0.62;6.63;4.37;;;28.20;22.20;;;;;;2246213;61;20369;-61
2022/05/15 02:25:14;0.00;0.00;0.62;0.00;0.00;0.62;5.37;4.70;;;28.20;22.20;;;;;;2247012;61;20460;-60
2022/05/15 02:28:02;0.00;0.00;0.62;0.00;0.00;0.62;5.23;3.70;;;28.10;22.20;;;;;;2243918;61;20412;-61
2022/05/15 02:30:48;0.00;0.00;0.62;0.00;0.00;0.62;5.33;3.77;;;28.10;22.10;;;;;;2245937;61;20397;-61
2022/05/15 02:33:33;0.00;0.00;0.62;0.00;0.00;0.62;5.50;3.70;;;28.10;22.20;;;;;;2243667;61;20380;-60
2022/05/15 02:36:18;0.00;0.00;0.62;0.00;0.00;0.62;5.00;4.00;;;28.10;22.80;;;;;;2243966;61;20384;-62
2022/05/15 02:39:06;0.00;0.00;0.62;0.00;0.00;0.62;5.80;4.40;;;28.00;22.20;;;;;;2246381;61;20388;-61
2022/05/15 02:41:51;0.00;0.00;0.62;0.00;0.00;0.62;4.20;3.60;;;28.10;22.20;;;;;;2245777;61;20388;-58
2022/05/15 02:44:37;0.00;0.00;0.62;0.00;0.00;0.62;6.40;4.00;;;28.00;22.20;;;;;;2249608;61;20385;-59
2022/05/15 02:47:24;0.00;0.00;0.62;0.00;0.00;0.62;6.07;4.23;;;28.00;22.20;;;;;;2246784;61;20416;-59
2022/05/15 02:53:12;0.00;0.00;0.62;0.00;0.00;0.62;4.30;3.90;;;28.00;22.20;;;;;;2244205;61;20853;-61
2022/05/15 02:55:57;0.00;0.00;0.62;0.00;0.00;0.62;6.00;4.33;;;27.90;22.10;;;;;;2244339;61;20423;-67
2022/05/15 02:58:42;0.00;0.00;0.62;0.00;0.00;0.62;5.97;4.23;;;27.90;22.10;;;;;;2246532;61;20392;-61
2022/05/15 03:01:28;0.00;0.00;0.62;0.00;0.00;0.62;5.57;4.27;;;27.80;22.10;;;;;;2471326;53;20768;-60
2022/05/15 03:04:13;0.00;0.00;0.62;0.00;0.00;0.62;4.87;4.20;;;27.80;22.10;;;;;;2242434;61;20421;-58
2022/05/15 03:06:57;0.00;0.00;0.62;0.00;0.00;0.62;7.70;3.83;;;27.80;22.10;;;;;;2245313;61;20409;-61
2022/05/15 03:09:42;0.00;0.00;0.62;0.00;0.00;0.62;5.53;4.50;;;27.80;22.20;;;;;;2242427;61;20552;-61
2022/05/15 03:12:27;0.00;0.00;0.62;0.00;0.00;0.62;6.07;4.30;;;27.70;22.10;;;;;;2239962;61;20365;-59
2022/05/15 03:15:14;0.00;0.00;0.62;0.00;0.00;0.62;4.90;3.93;;;27.70;22.20;;;;;;2240004;61;20793;-60
2022/05/15 03:18:00;0.00;0.00;0.62;0.00;0.00;0.62;7.53;4.30;;;27.70;22.20;;;;;;2245209;61;20910;-58
2022/05/15 03:20:45;0.00;0.00;0.62;0.00;0.00;0.62;4.47;4.07;;;27.70;22.20;;;;;;2239858;61;20362;-60
2022/05/15 03:23:30;0.00;0.00;0.62;0.00;0.00;0.62;5.43;3.97;;;27.60;22.20;;;;;;2240003;61;20409;-62
2022/05/15 03:26:15;0.00;0.00;0.62;0.00;0.00;0.62;5.27;4.30;;;27.60;22.30;;;;;;2240137;61;20452;-62
2022/05/15 03:29:00;0.00;0.00;0.62;0.00;0.00;0.62;4.20;3.70;;;27.60;22.30;;;;;;2242556;61;21010;-62
2022/05/15 03:31:46;0.00;0.00;0.62;0.00;0.00;0.62;5.43;4.30;;;27.60;22.40;;;;;;2239960;61;20938;-59
2022/05/15 03:34:32;0.00;0.00;0.62;0.00;0.00;0.62;4.40;3.90;;;27.50;22.30;;;;;;2240420;61;20437;-60
2022/05/15 03:37:17;0.00;0.00;0.62;0.00;0.00;0.62;4.93;4.43;;;27.50;22.40;;;;;;2239755;61;20456;-64
2022/05/15 03:40:01;0.00;0.00;0.62;0.00;0.00;0.62;6.50;4.80;;;27.50;22.40;;;;;;2239916;61;20421;-57
2022/05/15 03:42:46;0.00;0.00;0.62;0.00;0.00;0.62;4.50;3.83;;;27.40;22.40;;;;;;2245290;61;20381;-64
2022/05/15 03:45:31;0.00;0.00;0.62;0.00;0.00;0.62;7.50;4.70;;;27.40;22.40;;;;;;2240192;61;20409;-61
2022/05/15 03:48:16;0.00;0.00;0.62;0.00;0.00;0.62;6.47;4.70;;;27.40;22.40;;;;;;2242346;61;20378;-62
2022/05/15 03:51:03;0.00;0.00;0.62;0.00;0.00;0.62;6.33;4.57;;;27.40;22.40;;;;;;2242142;61;20373;-59
2022/05/15 03:53:48;0.00;0.00;0.62;0.00;0.00;0.62;5.20;4.20;;;27.40;22.40;;;;;;2245552;61;20374;-60
2022/05/15 03:56:51;0.00;0.00;0.62;0.00;0.00;0.62;6.60;4.60;;;27.40;22.40;;;;;;2242827;61;20401;-61
2022/05/15 03:59:40;0.00;0.00;0.62;0.00;0.00;0.62;6.90;4.90;;;27.30;22.40;;;;;;2240709;61;20917;-61
2022/05/15 04:02:25;0.00;0.00;0.62;0.00;0.00;0.62;8.30;4.10;;;27.30;22.30;;;;;;2245366;61;20401;-60
2022/05/15 04:05:11;0.00;0.00;0.62;0.00;0.00;0.62;6.70;4.30;;;27.30;22.30;;;;;;2240272;61;20470;-59
2022/05/15 04:07:57;0.00;0.00;0.62;0.00;0.00;0.62;5.70;3.90;;;27.20;22.30;;;;;;2243059;61;20421;-63
2022/05/15 04:10:42;0.00;0.00;0.62;0.00;0.00;0.62;5.30;3.87;;;27.20;22.30;;;;;;2240240;61;20393;-60
2022/05/15 04:13:27;0.00;0.00;0.62;0.00;0.00;0.62;6.03;4.60;;;27.20;22.30;;;;;;2243152;61;20361;-62
2022/05/15 04:16:13;0.00;0.00;0.62;0.00;0.00;0.62;5.00;4.50;;;27.20;22.40;;;;;;2243274;61;20370;-58
2022/05/15 04:18:58;0.00;0.00;0.62;0.00;0.00;0.62;5.03;4.40;;;27.20;22.40;;;;;;2243012;61;20414;-61
2022/05/15 04:21:43;0.00;0.00;0.62;0.00;0.00;0.62;5.50;4.00;;;27.10;22.30;;;;;;2245153;61;20430;-61
2022/05/15 04:24:29;0.00;0.00;0.62;0.00;0.00;0.62;5.80;3.73;;;27.10;22.40;;;;;;2240826;61;20987;-62
2022/05/15 04:27:14;0.00;0.00;0.62;0.00;0.00;0.62;6.00;4.30;;;27.10;22.40;;;;;;2242950;61;20364;-59
2022/05/15 04:29:59;0.00;0.00;0.62;0.00;0.00;0.62;6.23;4.17;;;27.10;22.40;;;;;;2240499;61;20854;-61
2022/05/15 04:32:44;0.00;0.00;0.62;0.00;0.00;0.62;4.07;3.67;;;27.00;22.40;;;;;;2242593;61;20782;-60
2022/05/15 04:35:29;0.00;0.00;0.62;0.00;0.00;0.62;4.37;3.80;;;27.00;22.40;;;;;;2243103;61;20798;-59
2022/05/15 04:38:13;0.00;0.00;0.62;0.00;0.00;0.62;5.50;4.10;;;27.00;22.40;;;;;;2240934;61;20394;-61
2022/05/15 04:40:59;0.00;0.00;0.62;0.00;0.00;0.62;6.17;4.43;;;27.00;22.40;;;;;;2240097;61;20380;-62
2022/05/15 04:43:44;0.00;0.00;0.62;0.00;0.00;0.62;3.77;3.30;;;27.00;22.40;;;;;;2240526;61;20424;-58
2022/05/15 04:46:29;0.00;0.00;0.62;0.00;0.00;0.62;4.33;3.83;;;27.00;22.50;;;;;;2240211;61;20402;-61
2022/05/15 04:49:14;0.00;0.00;0.62;0.00;0.00;0.62;5.63;4.03;;;27.00;22.50;;;;;;2240767;61;20796;-60
2022/05/15 04:51:58;0.00;0.00;0.62;0.00;0.00;0.62;5.27;3.70;;;27.00;22.50;;;;;;2240035;61;20942;-62
2022/05/15 04:54:43;0.00;0.00;0.62;0.00;0.00;0.62;4.70;3.57;;;26.90;22.50;;;;;;2240162;61;20937;-58
2022/05/15 04:57:29;0.00;0.00;0.62;0.00;0.00;0.62;6.13;4.30;;;26.90;22.60;;;;;;2240674;61;20373;-67
2022/05/15 05:00:17;0.00;0.00;0.62;0.00;0.00;0.62;5.03;4.23;;;26.90;22.70;;;;;;2240184;61;20488;-62
2022/05/15 05:03:02;0.00;0.00;0.62;0.00;0.00;0.62;3.77;3.37;;;26.90;22.70;;;;;;2240089;61;20369;-61
2022/05/15 05:05:46;0.00;0.00;0.62;0.00;0.00;0.62;4.47;3.40;;;26.90;22.70;;;;;;2240235;61;20393;-60
2022/05/15 05:08:31;0.00;0.00;0.62;0.00;0.00;0.62;5.60;3.47;;;26.90;22.80;;;;;;2240594;61;20405;-61
2022/05/15 05:11:16;0.00;0.00;0.62;0.00;0.00;0.62;5.67;3.60;;;26.90;22.80;;;;;;2240126;61;20792;-63
2022/05/15 05:14:02;0.00;0.00;0.62;0.00;0.00;0.62;6.60;4.23;;;26.80;22.80;;;;;;2240087;61;20879;-63
2022/05/15 05:16:46;0.00;0.00;0.62;0.00;0.00;0.62;5.10;3.63;;;26.80;22.80;;;;;;2240386;61;20399;-62
2022/05/15 05:19:31;0.00;0.00;0.62;0.00;0.00;0.62;4.63;3.80;;;26.80;22.80;;;;;;2240668;61;20414;-61
2022/05/15 05:22:15;0.00;0.00;0.62;0.00;0.00;0.62;5.40;4.03;;;26.80;22.80;;;;;;2239670;61;20546;-61
2022/05/15 05:25:00;0.00;0.00;0.62;0.00;0.00;0.62;4.23;3.70;;;26.80;22.90;;;;;;2240445;61;20397;-61
2022/05/15 05:27:45;0.00;0.00;0.62;0.00;0.00;0.62;5.53;4.00;;;26.80;22.90;;;;;;2240536;61;20369;-60
2022/05/15 05:30:32;0.00;0.00;0.62;0.00;0.00;0.62;9.90;3.83;;;26.80;22.90;;;;;;2239811;61;20452;-59
2022/05/15 05:33:18;0.00;0.00;0.62;0.00;0.00;0.62;5.23;3.27;;;26.80;22.90;;;;;;2240532;61;20389;-61
2022/05/15 05:36:04;0.00;0.00;0.62;0.00;0.00;0.62;5.07;4.07;;;26.80;22.90;;;;;;2240358;61;20402;-62
2022/05/15 05:38:49;0.00;0.00;0.62;0.00;0.00;0.62;5.07;3.23;;;26.80;22.90;;;;;;2240124;61;20714;-62
2022/05/15 05:41:33;0.00;0.00;0.62;0.00;0.00;0.62;4.23;3.27;;;26.70;22.90;;;;;;2240013;61;20373;-62
2022/05/15 05:44:18;0.00;0.00;0.62;0.00;0.00;0.62;5.17;3.67;;;26.70;22.90;;;;;;2240113;61;20498;-61
2022/05/15 05:47:05;0.00;0.00;0.62;0.00;0.00;0.62;4.10;3.20;;;26.70;22.80;;;;;;2240506;61;20366;-60
2022/05/15 05:49:49;0.00;0.00;0.62;0.00;0.00;0.62;5.90;3.83;;;26.70;22.70;;;;;;2240272;61;20437;-61
2022/05/15 05:52:34;0.00;0.00;0.62;0.00;0.00;0.62;5.47;3.67;;;26.60;22.70;;;;;;2239860;61;20413;-64
2022/05/15 05:55:21;0.00;0.00;0.62;0.00;0.00;0.62;4.37;3.03;;;26.60;22.70;;;;;;2240112;61;20401;-64
2022/05/15 05:58:05;0.00;0.00;0.62;0.00;0.00;0.62;4.10;2.50;;;26.60;22.70;;;;;;2240304;61;20365;-62
2022/05/15 06:00:50;0.00;0.00;0.62;0.00;0.00;0.62;6.00;3.40;;;26.60;22.70;;;;;;2239916;61;20368;-63
2022/05/15 06:06:39;0.00;0.00;0.62;0.00;0.00;0.62;6.53;2.80;;;26.50;22.40;;;;;;2245392;61;20429;-61
2022/05/15 06:09:23;0.00;0.00;0.62;0.00;0.00;0.62;8.73;3.07;;;26.40;22.30;;;;;;2240221;61;20393;-61
2022/05/15 06:12:10;0.00;0.00;0.62;0.00;0.00;0.62;6.37;2.90;;;26.30;22.20;;;;;;2239703;61;20350;-62
2022/05/15 06:14:55;0.00;0.00;0.62;0.00;0.00;0.62;8.30;3.97;;;26.30;22.20;;;;;;2240138;61;20474;-60
2022/05/15 06:17:40;0.00;0.00;0.62;0.00;0.00;0.62;6.83;4.00;;;26.20;22.30;;;;;;2240420;61;20498;-61
2022/05/15 06:20:27;0.00;0.00;0.62;0.00;0.00;0.62;6.40;3.80;;;26.10;22.20;;;;;;2239806;61;20409;-57
2022/05/15 06:23:11;0.00;0.00;0.62;0.00;0.00;0.62;8.03;3.20;;;26.00;22.30;;;;;;2240227;61;20961;-59
2022/05/15 06:25:56;0.00;0.00;0.62;0.00;0.00;0.62;6.37;3.07;;;26.00;22.40;;;;;;2242680;61;20942;-63
2022/05/15 06:28:41;0.00;0.00;0.62;0.00;0.00;0.62;4.23;2.93;;;25.90;22.50;;;;;;2240243;61;20357;-60
2022/05/15 06:31:26;0.00;0.00;0.62;0.00;0.00;0.62;6.17;3.13;;;25.90;22.70;;;;;;2239768;61;20819;-60
2022/05/15 06:34:10;0.00;0.00;0.62;0.00;0.00;0.62;4.60;2.93;;;25.90;22.70;;;;;;2240448;61;20437;-62
2022/05/15 06:36:57;0.00;0.00;0.62;0.00;0.00;0.62;5.33;3.30;;;25.90;22.70;;;;;;2240444;61;20365;-64
2022/05/15 06:39:41;0.00;0.00;0.62;0.00;0.00;0.62;3.50;2.60;;;25.90;22.70;;;;;;2240150;61;20370;-61
2022/05/15 06:42:28;0.00;0.00;0.62;0.00;0.00;0.62;6.20;3.20;;;25.90;22.70;;;;;;2239668;61;20413;-55
2022/05/15 06:45:14;0.00;0.00;0.62;0.00;0.00;0.62;4.87;3.63;;;25.90;22.70;;;;;;2242215;61;20444;-61
2022/05/15 06:47:58;0.00;0.00;0.62;0.00;0.00;0.62;7.67;3.40;;;25.90;22.70;;;;;;2240250;61;20816;-59
2022/05/15 06:50:44;0.00;0.00;0.62;0.00;0.00;0.62;5.03;3.07;;;25.90;22.70;;;;;;2239730;61;20404;-58
2022/05/15 06:53:30;0.00;0.00;0.62;0.00;0.00;0.62;3.67;2.47;;;25.90;22.70;;;;;;2240010;61;20374;-61
2022/05/15 06:59:19;0.00;0.00;0.62;0.00;0.00;0.62;5.50;2.93;;;25.90;22.70;;;;;;2240240;61;20356;-59
2022/05/15 07:02:04;0.00;0.00;0.62;0.00;0.00;0.62;5.10;3.00;;;25.90;22.70;;;;;;2239777;61;20569;-60
2022/05/15 07:04:49;0.00;0.00;0.62;0.00;0.00;0.62;5.23;3.33;;;25.90;22.70;;;;;;2240080;61;20802;-59
2022/05/15 07:07:33;0.00;0.00;0.62;0.00;0.00;0.62;4.83;2.80;;;25.90;22.70;;;;;;2240144;61;20369;-57
2022/05/15 07:10:19;0.00;0.00;0.62;0.00;0.00;0.62;4.70;2.97;;;25.90;22.70;;;;;;2244858;61;20386;-56
2022/05/15 07:13:06;0.00;0.00;0.62;0.00;0.00;0.62;3.83;2.47;;;25.90;22.70;;;;;;2239650;61;20380;-56
2022/05/15 07:15:51;0.00;0.00;0.62;0.00;0.00;0.62;6.27;2.73;;;25.90;22.70;;;;;;2240217;61;20292;-56
2022/05/15 07:18:36;0.00;0.00;0.62;0.00;0.00;0.62;4.03;2.80;;;26.00;22.80;;;;;;2242159;61;20371;-59
2022/05/15 07:21:20;0.00;0.00;0.62;0.00;0.00;0.62;3.47;2.57;;;26.00;22.80;;;;;;2245689;61;20783;-57
2022/05/15 07:24:06;0.00;0.00;0.62;0.00;0.00;0.62;5.20;3.23;;;26.00;22.80;;;;;;2253108;61;20462;-58
2022/05/15 07:26:52;0.00;0.00;0.62;0.00;0.00;0.62;5.10;3.30;;;26.00;22.80;;;;;;2248215;61;20422;-58
2022/05/15 07:29:36;0.00;0.00;0.62;0.00;0.00;0.62;5.30;3.27;;;26.00;22.80;;;;;;2247431;61;20442;-60
2022/05/15 07:32:21;0.00;0.00;0.62;0.00;0.00;0.62;4.20;2.80;;;26.00;22.80;;;;;;2247311;61;20363;-56
2022/05/15 07:35:07;0.00;0.00;0.62;0.00;0.00;0.62;4.00;2.70;;;26.00;22.80;;;;;;2248675;61;20423;-64
2022/05/15 07:37:51;0.00;0.00;0.62;0.00;0.00;0.62;3.43;2.47;;;26.00;22.80;;;;;;2248787;61;20474;-66
2022/05/15 07:40:36;0.00;0.00;0.62;0.00;0.00;0.62;4.90;3.07;;;26.00;22.80;;;;;;2248162;61;20406;-65
2022/05/15 07:43:22;0.00;0.00;0.62;0.00;0.00;0.62;5.20;2.13;;;26.10;22.80;;;;;;2246891;61;20550;-59
2022/05/15 07:46:07;0.00;0.00;0.62;0.00;0.00;0.62;4.33;2.50;;;26.10;22.80;;;;;;2244802;61;20393;-58
2022/05/15 07:48:54;0.00;0.00;0.62;0.00;0.00;0.62;4.57;2.80;;;26.10;22.80;;;;;;2244624;61;20409;-59
2022/05/15 07:51:44;0.00;0.00;0.62;0.00;0.00;0.62;3.97;2.83;;;26.10;22.80;;;;;;2244333;61;20357;-58
2022/05/15 07:54:33;0.00;0.00;0.62;0.00;0.00;0.62;4.00;2.50;;;26.20;22.90;;;;;;2244769;61;20384;-64
2022/05/15 07:57:17;0.00;0.00;0.62;0.00;0.00;0.62;4.37;2.77;;;26.10;22.80;;;;;;2244971;61;20368;-63
2022/05/15 08:00:08;0.00;0.00;0.62;0.00;0.00;0.62;4.10;2.40;;;26.20;22.90;;;;;;2244912;61;20364;-64
2022/05/15 08:03:07;0.00;0.00;0.62;0.00;0.00;0.62;4.30;2.90;;;26.20;22.90;;;;;;2244837;61;20913;-65
2022/05/15 08:08:57;0.00;0.00;0.62;0.00;0.00;0.62;4.13;2.27;;;26.20;22.90;;;;;;2245181;61;20365;-64
2022/05/15 08:11:42;0.00;0.00;0.62;0.00;0.00;0.62;4.30;2.70;;;26.20;22.90;;;;;;2244417;61;20814;-57
2022/05/15 08:14:28;0.00;0.00;0.62;0.00;0.00;0.62;3.77;2.30;;;26.20;22.90;;;;;;2244700;61;20392;-66
2022/05/15 08:17:14;0.00;0.00;0.62;0.00;0.00;0.62;3.10;2.50;;;26.30;22.90;;;;;;2244465;61;20396;-66
2022/05/15 08:26:06;0.00;0.00;0.62;0.00;0.00;0.62;3.10;2.40;;;26.30;22.90;;;;;;2248887;61;21039;-65
2022/05/15 08:28:51;0.00;0.00;0.62;0.00;0.00;0.62;6.40;2.90;;;26.30;22.90;;;;;;2248680;61;20371;-64
2022/05/15 08:31:37;0.00;0.00;0.62;0.00;0.00;0.62;4.50;2.57;;;26.40;23.00;;;;;;2247999;61;20383;-61
2022/05/15 08:34:23;0.00;0.00;0.62;0.00;0.00;0.62;3.40;2.70;;;26.40;23.00;;;;;;2248777;61;20916;-60
2022/05/15 08:37:08;0.00;0.00;0.62;0.00;0.00;0.62;4.40;3.00;;;26.40;23.00;;;;;;2248603;61;20503;-63
2022/05/15 08:39:53;0.00;0.00;0.62;0.00;0.00;0.62;3.80;2.40;;;26.40;23.00;;;;;;2248398;61;20372;-61
2022/05/15 08:42:47;0.00;0.00;0.62;0.00;0.00;0.62;5.70;3.17;;;26.50;23.00;;;;;;2248929;61;20407;-63
2022/05/15 08:45:37;0.00;0.00;0.62;0.00;0.00;0.62;4.07;2.70;;;26.50;23.00;;;;;;2248295;61;20442;-58
2022/05/15 08:48:22;0.00;0.00;0.62;0.00;0.00;0.62;4.57;2.57;;;26.50;23.00;;;;;;2248366;61;20379;-60
2022/05/15 08:51:12;0.00;0.00;0.62;0.00;0.00;0.62;3.23;2.50;;;26.60;23.10;;;;;;2247899;61;20452;-66
2022/05/15 08:54:00;0.00;0.00;0.62;0.00;0.00;0.62;5.83;2.80;;;26.60;23.10;;;;;;2248177;61;20926;-63
2022/05/15 08:56:50;0.00;0.00;0.62;0.00;0.00;0.62;5.47;2.60;;;26.60;23.10;;;;;;2248868;61;20371;-65
2022/05/15 08:59:51;0.00;0.00;0.62;0.00;0.00;0.62;4.70;3.47;;;26.60;23.10;;;;;;2248335;61;20375;-67
2022/05/15 09:02:37;0.00;0.00;0.62;0.00;0.00;0.62;6.10;3.40;;;26.60;23.10;;;;;;2248095;61;20900;-66
2022/05/15 09:05:27;0.00;0.00;0.62;0.00;0.00;0.62;5.60;2.93;;;26.70;23.20;;;;;;2248240;61;20383;-67
2022/05/15 09:08:40;0.00;0.00;0.62;0.00;0.00;0.62;7.00;2.93;;;26.70;23.20;;;;;;2248906;61;20395;-52
2022/05/15 09:11:42;0.00;0.00;0.62;0.00;0.00;0.62;3.90;2.77;;;26.70;23.20;;;;;;2248078;61;20427;-62
2022/05/15 09:14:40;0.00;0.00;0.62;0.00;0.00;0.62;6.57;3.03;;;26.70;23.20;;;;;;2247886;61;20391;-61
2022/05/15 09:17:33;0.00;0.00;0.62;0.00;0.00;0.62;3.70;2.50;;;26.80;23.20;;;;;;2247923;61;20496;-61
2022/05/15 09:20:28;0.00;0.00;0.62;0.00;0.00;0.62;4.83;3.33;;;26.80;23.20;;;;;;2246829;61;20387;-54
2022/05/15 09:23:22;0.00;0.00;0.62;0.00;0.00;0.62;3.70;2.40;;;26.80;23.20;;;;;;2248676;61;20414;-64
2022/05/15 09:26:16;0.00;0.00;0.62;0.00;0.00;0.62;4.73;2.60;;;26.80;23.20;;;;;;2248640;61;20375;-66
2022/05/15 09:29:04;0.00;0.00;0.62;0.00;0.00;0.62;2.47;1.90;;;26.80;23.20;;;;;;2250608;61;20363;-60
2022/05/15 09:31:49;0.00;0.00;0.62;0.00;0.00;0.62;5.13;3.03;;;26.90;23.30;;;;;;2248118;61;20371;-58
2022/05/15 09:34:36;0.00;0.00;0.62;0.00;0.00;0.62;5.00;2.57;;;26.90;23.30;;;;;;2248100;61;20916;-65
2022/05/15 09:43:30;0.00;0.00;0.62;0.00;0.00;0.62;6.00;3.50;;;26.90;23.80;;;;;;2247957;61;20360;-64
2022/05/15 09:43:53;0.00;0.00;0.62;0.00;0.00;0.62;3.83;2.57;;;27.00;23.30;;;;;;2248186;61;20407;-60
2022/05/15 09:46:40;0.00;0.00;0.62;0.00;0.00;0.62;5.00;2.60;;;27.00;23.30;;;;;;2248349;61;20367;-61
2022/05/15 09:49:30;0.00;0.00;0.62;0.00;0.00;0.62;4.30;2.70;;;27.00;23.30;;;;;;2248310;61;20444;-59
2022/05/15 09:52:19;0.00;0.00;0.62;0.00;0.00;0.62;4.33;2.93;;;27.00;23.30;;;;;;2247916;61;20418;-60
2022/05/15 09:55:13;0.00;0.00;0.62;0.00;0.00;0.62;5.47;3.43;;;27.10;23.40;;;;;;2248457;61;20434;-61
2022/05/15 09:58:01;0.00;0.00;0.62;0.00;0.00;0.62;7.57;3.20;;;27.10;23.40;;;;;;2248316;61;20399;-62
2022/05/15 10:00:46;0.00;0.00;0.62;0.00;0.00;0.62;6.60;2.93;;;27.10;23.40;;;;;;2247626;61;20460;-61
2022/05/15 10:03:33;0.00;0.00;0.62;0.00;0.00;0.62;5.83;3.23;;;27.10;23.40;;;;;;2248508;61;20364;-59
2022/05/15 10:06:21;0.00;0.00;0.62;0.00;0.00;0.62;6.30;3.60;;;27.10;23.40;;;;;;2248185;61;20418;-57
2022/05/15 10:09:22;0.00;0.00;0.62;0.00;0.00;0.62;5.73;3.17;;;27.10;23.40;;;;;;2248262;61;20427;-53
2022/05/15 10:12:27;0.00;0.00;0.62;0.00;0.00;0.62;8.57;3.50;;;27.10;23.40;;;;;;2242067;61;20991;-60
2022/05/15 10:15:15;0.00;0.00;0.62;0.00;0.00;0.62;4.87;3.30;;;27.10;23.40;;;;;;2248159;61;20391;-65
2022/05/15 10:18:03;0.00;0.00;0.62;0.00;0.00;0.62;9.80;3.20;;;27.10;23.20;;;;;;2248159;61;20379;-64
2022/05/15 10:20:51;0.00;0.00;0.62;0.00;0.00;0.62;5.77;3.27;;;27.10;23.10;;;;;;2247972;61;20380;-63
2022/05/15 10:23:45;0.00;0.00;0.62;0.00;0.00;0.62;6.57;3.80;;;27.20;23.10;;;;;;2248405;61;20363;-65
2022/05/15 10:26:36;0.00;0.00;0.62;0.00;0.00;0.62;8.80;2.77;;;27.20;23.00;;;;;;2248120;61;20379;-64
2022/05/15 10:29:27;0.00;0.00;0.62;0.00;0.00;0.62;4.93;3.27;;;27.20;23.00;;;;;;2248124;61;20443;-67
2022/05/15 10:32:19;0.00;0.00;0.62;0.00;0.00;0.62;5.80;2.90;;;27.20;22.90;;;;;;2247615;61;20411;-61
2022/05/15 10:35:05;0.00;0.00;0.62;0.00;0.00;0.62;6.20;3.60;;;27.20;22.90;;;;;;2247942;61;20392;-56
2022/05/15 10:38:04;0.00;0.00;0.62;0.00;0.00;0.62;10.67;4.40;;;27.20;23.00;;;;;;2247748;61;20403;-62
2022/05/15 10:40:56;0.00;0.00;0.62;0.00;0.00;0.62;10.63;3.90;;;27.20;23.00;;;;;;2249899;61;21185;-65
2022/05/15 10:44:05;0.00;0.00;0.62;0.00;0.00;0.62;6.67;3.90;;;27.20;23.00;;;;;;2245796;61;21051;-64
2022/05/15 10:46:55;0.00;0.00;0.62;0.00;0.00;0.62;6.70;3.20;;;27.30;23.20;;;;;;2499794;53;20415;-65
2022/05/15 10:50:20;0.00;0.00;0.62;0.00;0.00;0.62;5.03;3.10;;;27.30;23.30;;;;;;2248014;61;20398;-66
2022/05/15 11:00:15;0.00;0.00;0.62;0.00;0.00;0.62;5.50;2.83;;;27.40;23.50;;;;;;2244159;61;20415;-56
2022/05/15 11:03:37;0.00;0.00;0.62;0.00;0.00;0.62;5.10;3.27;;;27.40;23.50;;;;;;2244476;61;20851;-59
2022/05/15 11:06:57;0.00;0.00;0.62;0.00;0.00;0.62;7.03;3.93;;;27.40;23.50;;;;;;2244995;61;20372;-55
2022/05/15 11:10:06;0.00;0.00;0.62;0.00;0.00;0.62;6.97;3.53;;;27.50;23.50;;;;;;2245005;61;20439;-58
2022/05/15 11:13:03;0.00;0.00;0.62;0.00;0.00;0.62;6.00;2.97;;;27.50;23.50;;;;;;2244844;61;20368;-60
2022/05/15 11:16:03;0.00;0.00;0.62;0.00;0.00;0.62;4.70;3.03;;;27.50;23.40;;;;;;2245020;61;20400;-60
2022/05/15 11:19:24;0.00;0.00;0.62;0.00;0.00;0.62;7.63;2.60;;;27.50;23.40;;;;;;2244274;61;20402;-57
2022/05/15 11:22:25;0.00;0.00;0.62;0.00;0.00;0.62;4.77;2.90;;;27.60;23.40;;;;;;2243026;61;20460;-61
2022/05/15 11:25:15;0.00;0.00;0.62;0.00;0.00;0.62;5.43;3.00;;;27.60;23.30;;;;;;2245233;61;20513;-61
2022/05/15 11:28:10;0.00;0.00;0.62;0.00;0.00;0.62;3.93;2.30;;;27.60;23.40;;;;;;2244815;61;20436;-60
2022/05/15 11:31:03;0.00;0.00;0.62;0.00;0.00;0.62;5.60;2.80;;;27.60;23.30;;;;;;2244231;61;20401;-63